Terminal Aerodrome Forecast
Issued by NWS Raleigh/Durham, NC

Home | Current Version | Previous Version | Text Only | Print | Product List | Glossary On
Versions: 1 2 3 4 5 6 7 8 9 10 11 12 13 14 15 16 17 18 19 20 21 22 23
000
FTUS42 KRAH 300654 AAA
TAFFAY
TAF AMD
KFAY 300654Z 3007/0106 20005KT P6SM OVC008
     FM301400 20007KT P6SM BKN015
     FM301800 20009KT P6SM SCT030
     FM302000 19011G20KT P6SM SCT035
     FM010100 17008KT P6SM FEW250=

USA.gov is the U.S. government's official web portal to all federal, state and local government web resources and services.